Vliegveldwaarnemingen Nederland - (AUTO) METAR

Luchtvaartmeteorologische informatie voor operationeel gebruik en vluchtvoorbereiding is beschikbaar op www.luchtvaartmeteo.nl.

ZCZC
SA111625 EHKD     DE KOOY/DE KOOY   NLD   1 m.
METAR EHKD 111625Z AUTO 03009KT 360V060 9999 NCD 25/19 Q1021
BLU NOSIG=

ZCZC
SA111625 EHFD     F3-FB-1   NLD   50 m.
METAR EHFD 111625Z AUTO 13003KT 9999 NCD 19/17 Q1023=

ZCZC
SA111625 EHAM     AMSTERDAM/SCHIPHOL   NLD   -3 m.
METAR EHAM 111625Z 06012KT CAVOK 29/11 Q1020 NOSIG=

ZCZC
SA111625 EHVL     VLIELAND   NLD   10 m.
METAR EHVL 111625Z AUTO 04012KT 9999 NCD 25/17 Q1022 BLU=

ZCZC
SA111625 EHJR     K13-A   NLD   37 m.
METAR EHJR 111625Z AUTO 07017KT 360V080 //// // ///////// 20/17 Q1022
RE// W19/H4=

ZCZC
SA111625 EHLE     LELYSTAD/LELYSTAD   NLD   -3 m.
METAR EHLE 111625Z AUTO 05013KT 9999 NCD 29/11 Q1020 NOSIG=

ZCZC
SA111625 EHLW     LEEUWARDEN/LEEUWARDEN   NLD   1 m.
METAR EHLW 111625Z AUTO 04013KT 360V080 9999 NCD 25/14 Q1021 BLU=

ZCZC
SA111625 EHDL     ARNHEM/DEELEN   NLD   48 m.
METAR EHDL 111625Z AUTO VRB10KT 9999 NCD 31/09 Q1019 BLU=

ZCZC
SA111625 EHGG     GRONINGEN/EELDE   NLD   5 m.
METAR EHGG 111625Z AUTO 03010KT 9999 NCD 28/13 Q1021 NOSIG=

ZCZC
SA111625 EHSC     LICHTEILAND GOEREE   NLD   22 m.
METAR EHSC 111625Z AUTO 03019KT 9999 ///////// 23/17 Q1020 W20/H5=

ZCZC
SA111625 EHSA     EURO PLATFORM   NLD   19 m.
METAR EHSA 111625Z AUTO 02017KT 9999 ///////// 22/17 Q1020 W20/H5=

ZCZC
SA111625 EHWO     WOENSDRECHT/WOENSDRECHT   NLD   19 m.
METAR EHWO 111625Z AUTO 08010KT 020V120 9999 NCD 32/06 Q1019 BLU=

ZCZC
SA111625 EHRD     ROTTERDAM/THE HAGUE AIRPORT   NLD   -5 m.
METAR EHRD 111625Z AUTO 06010KT 030V090 9999 NCD 30/12 Q1019 NOSIG=

ZCZC
SA111625 EHGR     GILZE-RIJEN/GILZE-RIJEN   NLD   14 m.
METAR EHGR 111625Z AUTO 09009KT 010V140 9999 NCD 31/07 Q1019 BLU=

ZCZC
SA111625 EHEH     EINDHOVEN/EINDHOVEN   NLD   22 m.
METAR EHEH 111625Z AUTO 04007KT 340V100 9999 NCD 31/08 Q1019
BLU NOSIG=

ZCZC
SA111625 EHVK     VOLKEL/VOLKEL   NLD   21 m.
METAR EHVK 111625Z AUTO 05008KT 020V080 9999 NCD 31/06 Q1019 BLU=

ZCZC
SA111625 EHBK     MAASTRICHT/MAASTRICHT-AACHEN   NLD   114 m.
METAR EHBK 111625Z AUTO 05010KT 020V090 9999 NCD 31/06 Q1019 NOSIG=

ZCZC
SA111625 EHKV     K14-FA-1C   NLD   41 m.
METAR EHKV 111625Z AUTO 08017KT 9999 NCD 20/17 Q////=

ZCZC
SA111625 EHMG     L9-FF-1   NLD   44 m.
METAR EHMG 111625Z AUTO 07019KT 9999 NCD 21/17 Q1023=

ZCZC
SA111625 EHMA     AWG-1   NLD   40 m.
METAR EHMA 111625Z AUTO 06012KT 9999 NCD 22/17 Q1022=

ZCZC
SA111625 EHDV     D15-FA-1   NLD   42 m.
METAR EHDV 111625Z AUTO 15006KT 9999 NCD 19/// Q1023=

ZCZC
SA111625 EHAK     A12-CPP   NLD   48 m.
METAR EHAK 111625Z AUTO 19005KT //// // NCD 18/17 Q1023 RE//=

ZCZC
SA111625 EHQE     HOORN-A   NLD   50 m.
METAR EHQE 111625Z AUTO /////KT 9999 NCD 21/16 Q1021=

ZCZC
SA111625 EHJA     J6-A   NLD   45 m.
METAR EHJA 111625Z AUTO 08010KT 040V140 9999 NCD 22/18 Q1022=

ZCZC
SA111625 EHPG     P11-B   NLD   41 m.
METAR EHPG 111625Z AUTO 04016KT 9999 NCD 21/18 Q1021=

ZCZC
SA111625 EHHW     BUITENGAATS/BG-OHVS2      42 m.
METAR EHHW 111625Z AUTO 08007KT 010V140 9999 NCD 20/18 Q1023=

ZCZC
SA111625 EHFS     VLISSINGEN AWS   NLD   8 m.
METAR EHFS 111625Z AUTO 04012KT 360V060 9999 NCD 30/10 Q1019=

ZCZC
SA111625 EHSG     BSA   NLD   43 m.
METAR EHSG 111625Z AUTO 01014KT 330V040 9999 NCD 24/14 Q1020=

11/08/2022 18.45 uur LT